»·PEaware :: QXE2404 KSJC-KBOI

QXE2404 :: KSJC-KBOI

FLIGHT INFORMATION

Flight Status: Arrived
Operator:
Horizon Air
More flights by this operator :: More flights under this callsign
Pilot: Jamie M. (16133)
Aircraft: DEHAVILLAND DASH 8 400
(DH8D)
More flights by this aircraft type
Origin: KSJC Mineta San Jose Intl
United States
Destination: KBOI Boise Air Terminal/Gowen
United States
More flights between these airports :: More routes between these airports
Route: LOUPE4 BMRNG SAC J32 FMG PRNCS SADYL3
File this flight plan on PilotEdge
Remarks:
Altitude:
(Current/Filed)
25,000ft
Speed:
(Current/Filed)
321kts
Departed: 05-Mar-18 10:46 AM
Arrived: 05-Mar-18 12:28 PM
Distance/Time
Traveled:
454nm/1:42
Distance/Time
To Go:
Arrived

Flight Plot

Page will automatically refresh every two minutes.

Flight plan parsing failed; only flown route is shown


Map Options




Map Legend


Flown Route
Filed Route
Departure Airport
Arrival Airport
Navaid (VOR, NDB)
Fix

Horizontal Profiles

Position Reports

Time Latitude Longitude Heading Altitude Ground
Speed
05-Mar-18 10:16 37.362874 -121.922407 48 69ft 0kts
05-Mar-18 10:17 37.362874 -121.922407 48 69ft 0kts
05-Mar-18 10:18 37.362874 -121.922407 48 69ft 0kts
05-Mar-18 10:19 37.362874 -121.922407 48 69ft 0kts
05-Mar-18 10:20 37.362874 -121.922407 48 69ft 0kts
05-Mar-18 10:21 37.362874 -121.922407 48 69ft 0kts
05-Mar-18 10:22 37.362874 -121.922407 48 69ft 0kts
05-Mar-18 10:23 37.362874 -121.922407 48 69ft 0kts
05-Mar-18 10:24 37.362874 -121.922407 48 69ft 0kts
05-Mar-18 10:25 37.362874 -121.922407 48 69ft 0kts
05-Mar-18 10:26 37.362874 -121.922407 48 69ft 0kts
05-Mar-18 10:27 37.362874 -121.922407 48 69ft 0kts
05-Mar-18 10:28 37.362874 -121.922407 48 69ft 0kts
05-Mar-18 10:29 37.362874 -121.922407 48 69ft 0kts
05-Mar-18 10:30 37.362874 -121.922407 48 69ft 0kts
05-Mar-18 10:31 37.362874 -121.922407 48 69ft 0kts
05-Mar-18 10:32 37.362874 -121.922407 48 69ft 0kts
05-Mar-18 10:33 37.362874 -121.922407 48 69ft 0kts
05-Mar-18 10:34 37.362874 -121.922407 48 69ft 0kts
05-Mar-18 10:35 37.362874 -121.922407 48 69ft 0kts
05-Mar-18 10:36 37.362874 -121.922407 48 69ft 0kts
05-Mar-18 10:37 37.362573 -121.922832 49 69ft 2kts
05-Mar-18 10:38 37.362259 -121.923483 100 69ft 2kts
05-Mar-18 10:39 37.362412 -121.923747 139 69ft 0kts
05-Mar-18 10:40 37.362412 -121.923747 139 69ft 0kts
05-Mar-18 10:41 37.362412 -121.923747 139 69ft 0kts
05-Mar-18 10:42 37.362412 -121.923747 139 69ft 0kts
05-Mar-18 10:43 37.362412 -121.923747 139 69ft 0kts
05-Mar-18 10:44 37.362412 -121.923747 139 69ft 0kts
05-Mar-18 10:45 37.362412 -121.923747 139 69ft 0kts
05-Mar-18 10:46 37.362412 -121.923747 139 69ft 0kts
05-Mar-18 10:47 37.361743 -121.923050 138 69ft 5kts
05-Mar-18 10:48 37.360133 -121.921233 137 69ft 10kts
05-Mar-18 10:49 37.356987 -121.917804 140 69ft 16kts
05-Mar-18 10:50 37.354000 -121.914542 139 69ft 13kts
05-Mar-18 10:51 37.352891 -121.914682 228 69ft 0kts
05-Mar-18 10:52 37.353271 -121.916389 318 69ft 36kts
05-Mar-18 10:53 37.377002 -121.943306 312 1169ft 144kts
05-Mar-18 10:54 37.411664 -121.975878 346 2969ft 192kts
05-Mar-18 10:55 37.443669 -121.930087 106 4020ft 211kts
05-Mar-18 10:56 37.409445 -121.874615 97 5325ft 209kts
05-Mar-18 10:57 37.448406 -121.833468 11 6400ft 213kts
05-Mar-18 10:58 37.496488 -121.819987 11 7294ft 217kts
05-Mar-18 10:59 37.565806 -121.800531 10 9547ft 222kts
05-Mar-18 11:00 37.616556 -121.786302 10 11033ft 227kts
05-Mar-18 11:01 37.678335 -121.768957 10 12699ft 233kts
05-Mar-18 11:02 37.752738 -121.748028 10 14516ft 239kts
05-Mar-18 11:03 37.806573 -121.732859 10 15710ft 243kts
05-Mar-18 11:04 37.872673 -121.714202 11 17035ft 248kts
05-Mar-18 11:05 37.940034 -121.695155 11 18226ft 253kts
05-Mar-18 11:06 38.008192 -121.675870 11 19130ft 262kts
05-Mar-18 11:07 38.079284 -121.655705 11 20091ft 263kts
05-Mar-18 11:08 38.149060 -121.635829 11 21149ft 260kts
05-Mar-18 11:09 38.219639 -121.615720 11 21975ft 263kts
05-Mar-18 11:10 38.290126 -121.595604 11 22701ft 266kts
05-Mar-18 11:11 38.361812 -121.575108 11 23348ft 269kts
05-Mar-18 11:12 38.434091 -121.552119 26 23888ft 272kts
05-Mar-18 11:13 38.484397 -121.481315 51 24440ft 273kts
05-Mar-18 11:14 38.530238 -121.403548 52 24844ft 278kts
05-Mar-18 11:15 38.576839 -121.323602 52 24888ft 292kts
05-Mar-18 11:16 38.624975 -121.240747 52 24889ft 302kts
05-Mar-18 11:17 38.673947 -121.156289 52 24888ft 308kts
05-Mar-18 11:18 38.724452 -121.068942 52 24888ft 312kts
05-Mar-18 11:19 38.775071 -120.981161 52 24888ft 314kts
05-Mar-18 11:20 38.825754 -120.893032 52 24888ft 316kts
05-Mar-18 11:21 38.876650 -120.804673 52 24888ft 317kts
05-Mar-18 11:22 38.928573 -120.715103 52 24888ft 318kts
05-Mar-18 11:23 38.980355 -120.625491 52 24888ft 318kts
05-Mar-18 11:24 39.032369 -120.535188 52 24888ft 319kts
05-Mar-18 11:25 39.084481 -120.444482 52 24888ft 319kts
05-Mar-18 11:26 39.135111 -120.356111 52 24888ft 319kts
05-Mar-18 11:27 39.187339 -120.264689 52 24888ft 319kts
05-Mar-18 11:28 39.236493 -120.178411 52 24888ft 319kts
05-Mar-18 11:29 39.282225 -120.097920 52 24887ft 318kts
05-Mar-18 11:30 39.333419 -120.007598 52 24888ft 319kts
05-Mar-18 11:31 39.384766 -119.916734 52 24888ft 319kts
05-Mar-18 11:32 39.435096 -119.827421 52 24888ft 319kts
05-Mar-18 11:33 39.484405 -119.738580 50 24952ft 325kts
05-Mar-18 11:34 39.538159 -119.652031 20 25225ft 313kts
05-Mar-18 11:35 39.613223 -119.606238 13 25372ft 319kts
05-Mar-18 11:36 39.692185 -119.558399 14 25380ft 331kts
05-Mar-18 11:37 39.761488 -119.516196 14 25382ft 337kts
05-Mar-18 11:38 39.831841 -119.473529 14 25384ft 340kts
05-Mar-18 11:39 39.916772 -119.421817 14 25383ft 341kts
05-Mar-18 11:40 40.000978 -119.370240 14 25388ft 334kts
05-Mar-18 11:41 40.083950 -119.319634 14 25390ft 328kts
05-Mar-18 11:42 40.165912 -119.269230 14 25391ft 325kts
05-Mar-18 11:43 40.247011 -119.219349 14 25393ft 323kts
05-Mar-18 11:44 40.328224 -119.169341 14 25394ft 322kts
05-Mar-18 11:45 40.408734 -119.119444 14 25394ft 322kts
05-Mar-18 11:46 40.489720 -119.069239 14 25392ft 322kts
05-Mar-18 11:47 40.570492 -119.018976 14 25392ft 322kts
05-Mar-18 11:48 40.651206 -118.968657 14 25391ft 322kts
05-Mar-18 11:49 40.731491 -118.918510 14 25390ft 322kts
05-Mar-18 11:50 40.811876 -118.868118 15 25389ft 321kts
05-Mar-18 11:51 40.892211 -118.817529 15 25388ft 321kts
05-Mar-18 11:52 40.972703 -118.766870 15 25384ft 321kts
05-Mar-18 11:53 41.052981 -118.716041 15 25378ft 321kts
05-Mar-18 11:54 41.133482 -118.665106 15 25378ft 321kts
05-Mar-18 11:55 41.213582 -118.614190 15 25379ft 320kts
05-Mar-18 11:56 41.293775 -118.563107 15 25378ft 319kts
05-Mar-18 11:57 41.372568 -118.512725 16 25381ft 319kts
05-Mar-18 11:58 41.452027 -118.461812 16 25381ft 318kts
05-Mar-18 11:59 41.531783 -118.410528 16 25380ft 318kts
05-Mar-18 12:00 41.611036 -118.359519 16 25379ft 317kts
05-Mar-18 12:01 41.690652 -118.308119 17 25377ft 318kts
05-Mar-18 12:02 41.769058 -118.257195 17 25375ft 319kts
05-Mar-18 12:03 41.848698 -118.205533 17 25367ft 320kts
05-Mar-18 12:04 41.927897 -118.153879 17 25360ft 321kts
05-Mar-18 12:05 42.007587 -118.101794 17 25356ft 321kts
05-Mar-18 12:06 42.087589 -118.049372 17 25352ft 321kts
05-Mar-18 12:07 42.166936 -117.997248 17 25349ft 321kts
05-Mar-18 12:08 42.246417 -117.944881 17 25346ft 321kts
05-Mar-18 12:09 42.326631 -117.891903 17 25343ft 321kts
05-Mar-18 12:10 42.406451 -117.839048 17 25342ft 320kts
05-Mar-18 12:11 42.475637 -117.762617 43 25343ft 339kts
05-Mar-18 12:12 42.534460 -117.663325 41 25122ft 344kts
05-Mar-18 12:13 42.595360 -117.563190 42 24255ft 348kts
05-Mar-18 12:14 42.656671 -117.460905 43 23289ft 350kts
05-Mar-18 12:15 42.717683 -117.359090 43 22332ft 350kts
05-Mar-18 12:16 42.778450 -117.257196 43 21292ft 352kts
05-Mar-18 12:17 42.834818 -117.161084 43 19984ft 309kts
05-Mar-18 12:18 42.887849 -117.071527 42 18709ft 313kts
05-Mar-18 12:19 42.943085 -116.977520 43 17414ft 325kts
05-Mar-18 12:20 42.999835 -116.880690 45 15704ft 330kts
05-Mar-18 12:21 43.055335 -116.785356 46 13696ft 316kts
05-Mar-18 12:22 43.106785 -116.698304 46 12301ft 286kts
05-Mar-18 12:23 43.156318 -116.614823 47 10865ft 283kts
05-Mar-18 12:24 43.204255 -116.534970 46 10113ft 254kts
05-Mar-18 12:25 43.246725 -116.468069 45 9951ft 226kts
05-Mar-18 12:26 43.288513 -116.402270 46 9874ft 232kts
05-Mar-18 12:27 43.331195 -116.334849 46 9690ft 243kts
05-Mar-18 12:28 43.374993 -116.259419 55 8495ft 280kts
05-Mar-18 12:29 43.414338 -116.175011 57 6655ft 243kts
05-Mar-18 12:30 43.444829 -116.106590 59 5936ft 163kts
05-Mar-18 12:31 43.476427 -116.053157 18 6007ft 215kts
05-Mar-18 12:32 43.522551 -116.096438 297 4858ft 218kts
05-Mar-18 12:33 43.543302 -116.159470 300 3589ft 141kts
05-Mar-18 12:34 43.559411 -116.205612 294 2888ft 130kts
05-Mar-18 12:35 43.566024 -116.223278 357 2879ft 6kts
05-Mar-18 12:36 43.567547 -116.222851 11 2878ft 0kts
05-Mar-18 12:37 43.567547 -116.222851 11 2878ft 0kts
05-Mar-18 12:38 43.567547 -116.222851 11 2878ft 0kts
05-Mar-18 12:39 43.567547 -116.222851 11 2878ft 0kts
05-Mar-18 12:40 43.567547 -116.222851 11 2878ft 0kts
05-Mar-18 12:41 43.567547 -116.222851 11 2878ft 0kts
05-Mar-18 12:42 43.567547 -116.222851 11 2878ft 0kts
05-Mar-18 12:43 43.567547 -116.222851 11 2878ft 0kts
05-Mar-18 12:44 43.567547 -116.222851 11 2878ft 0kts
05-Mar-18 12:45 43.567547 -116.222851 11 2878ft 0kts
05-Mar-18 12:46 43.567547 -116.222851 11 2878ft 0kts
05-Mar-18 12:47 43.567547 -116.222851 11 2878ft 0kts
05-Mar-18 12:48 43.567547 -116.222851 11 2878ft 0kts
05-Mar-18 12:49 43.567547 -116.222851 11 2878ft 0kts

Navigation Log

Ident Type
Flight plan parsing failed, navigation log unavailable